createdAt,value
2022-11-19T00:00:20.997Z,98933.75
2022-11-19T00:05:23.969Z,98936.69
2022-11-19T00:10:26.881Z,98944.97
2022-11-19T00:15:29.738Z,98948.41
2022-11-19T00:20:34.811Z,98943.31
2022-11-19T00:25:37.748Z,98957.00
2022-11-19T00:30:47.988Z,98966.69
2022-11-19T00:35:55.122Z,98993.59
2022-11-19T00:40:58.110Z,98999.41
2022-11-19T00:46:01.552Z,99003.69
2022-11-19T00:51:04.851Z,99000.28
2022-11-19T00:56:14.823Z,99012.41
2022-11-19T01:01:20.535Z,99027.28
2022-11-19T01:06:25.661Z,99029.50
2022-11-19T01:11:33.926Z,99034.47
2022-11-19T01:16:42.014Z,99041.19
2022-11-19T01:21:44.908Z,99046.44
2022-11-19T01:26:47.914Z,99065.53
2022-11-19T01:31:50.806Z,99080.97
2022-11-19T01:36:53.690Z,99094.84
2022-11-19T01:41:56.510Z,99106.25
2022-11-19T01:46:59.473Z,99093.13
2022-11-19T01:52:03.598Z,99092.13
2022-11-19T01:57:13.227Z,99088.50
2022-11-19T02:02:19.803Z,99105.66
2022-11-19T02:07:29.048Z,99101.25
2022-11-19T02:12:58.386Z,99137.38
2022-11-19T02:18:14.571Z,99147.25
2022-11-19T02:23:57.078Z,99153.56
2022-11-19T02:29:05.626Z,99159.88
2022-11-19T02:34:31.176Z,99174.03
2022-11-19T02:39:36.899Z,99185.31
2022-11-19T02:45:16.731Z,99188.88
2022-11-19T02:50:46.699Z,99192.44
2022-11-19T02:56:08.423Z,99188.16
2022-11-19T03:01:30.209Z,99199.31
2022-11-19T03:06:34.756Z,99229.84
2022-11-19T03:11:37.589Z,99260.38
2022-11-19T03:16:51.302Z,99284.81
2022-11-19T03:22:08.045Z,99287.00
2022-11-19T03:27:25.352Z,99299.81
2022-11-19T03:32:36.427Z,99296.75
2022-11-19T03:37:43.075Z,99296.88
2022-11-19T03:42:51.038Z,99270.41
2022-11-19T03:47:56.922Z,99276.44
2022-11-19T03:53:04.292Z,99289.88
2022-11-19T03:58:11.036Z,99305.34
2022-11-19T04:03:13.939Z,99295.03
2022-11-19T04:08:16.819Z,99294.66
2022-11-19T04:13:19.728Z,99308.91
2022-11-19T04:18:22.510Z,99308.44
2022-11-19T04:23:25.475Z,99326.25
2022-11-19T04:28:28.755Z,99336.94
2022-11-19T04:33:31.886Z,99364.81
2022-11-19T04:38:34.932Z,99368.50
2022-11-19T04:43:37.836Z,99381.78
2022-11-19T04:48:40.693Z,99392.00
2022-11-19T04:53:44.517Z,99396.13
2022-11-19T04:58:47.502Z,99401.25
2022-11-19T05:03:50.786Z,99417.88
2022-11-19T05:08:53.683Z,99413.09
2022-11-19T05:13:56.601Z,99439.00
2022-11-19T05:18:59.590Z,99452.66
2022-11-19T05:24:02.726Z,99463.69
2022-11-19T05:29:05.513Z,99462.03
2022-11-19T05:34:08.606Z,99481.75
2022-11-19T05:39:11.430Z,99481.34
2022-11-19T05:44:14.284Z,99488.72
2022-11-19T05:49:17.309Z,99485.06
2022-11-19T05:54:20.430Z,99494.44
2022-11-19T05:59:23.324Z,99505.72
2022-11-19T06:04:26.167Z,99514.75
2022-11-19T06:09:29.045Z,99555.09
2022-11-19T06:14:31.900Z,99524.84
2022-11-19T06:19:34.842Z,99554.28
2022-11-19T06:24:37.642Z,99570.53
2022-11-19T06:29:40.451Z,99583.38
2022-11-19T06:34:43.745Z,99581.72
2022-11-19T06:39:46.658Z,99585.97
2022-11-19T06:44:49.411Z,99589.53
2022-11-19T06:49:52.434Z,99598.09
2022-11-19T06:54:55.801Z,99589.91
2022-11-19T06:59:58.747Z,99596.94
2022-11-19T07:05:01.867Z,99604.09
2022-11-19T07:10:05.333Z,99580.50
2022-11-19T07:15:09.318Z,99591.13
2022-11-19T07:20:12.637Z,99590.03
2022-11-19T07:25:15.673Z,99603.84
2022-11-19T07:30:18.783Z,99597.50
2022-11-19T07:35:21.781Z,99587.22
2022-11-19T07:40:24.703Z,99609.47
2022-11-19T07:45:27.582Z,99607.22
2022-11-19T07:50:30.549Z,99588.19
2022-11-19T07:55:34.021Z,99594.81
2022-11-19T08:00:37.303Z,99614.72
2022-11-19T08:05:40.762Z,99632.84
2022-11-19T08:10:43.586Z,99635.19
2022-11-19T08:15:46.415Z,99641.19
2022-11-19T08:20:49.137Z,99629.47
2022-11-19T08:25:53.018Z,99650.75
2022-11-19T08:30:56.621Z,99653.50
2022-11-19T08:35:59.429Z,99662.69
2022-11-19T08:41:20.780Z,99673.41
2022-11-19T08:46:23.686Z,99674.28
2022-11-19T08:51:26.836Z,99659.22
2022-11-19T08:56:30.619Z,99662.03
2022-11-19T09:01:33.434Z,99669.69
2022-11-19T09:06:36.328Z,99677.78
2022-11-19T09:11:42.713Z,99701.09
2022-11-19T09:16:46.152Z,99713.97
2022-11-19T09:21:49.454Z,99714.03
2022-11-19T09:26:53.198Z,99713.66
2022-11-19T09:31:56.260Z,99718.69
2022-11-19T09:36:59.418Z,99745.94
2022-11-19T09:42:49.144Z,99746.66
2022-11-19T09:48:17.014Z,99750.66
2022-11-19T09:53:22.934Z,99751.13
2022-11-19T09:58:38.290Z,99746.34
2022-11-19T10:03:44.523Z,99763.00
2022-11-19T10:09:05.269Z,99758.56
2022-11-19T10:14:38.173Z,99744.44
2022-11-19T10:19:50.261Z,99749.94
2022-11-19T10:25:19.557Z,99730.28
2022-11-19T10:30:29.250Z,99748.16
2022-11-19T10:36:12.647Z,99744.28
2022-11-19T10:41:21.782Z,99734.88
2022-11-19T10:46:27.743Z,99741.94
2022-11-19T10:51:40.346Z,99736.63
2022-11-19T10:56:43.795Z,99742.41
2022-11-19T11:01:52.702Z,99748.91
2022-11-19T11:07:00.006Z,99747.09
2022-11-19T11:12:38.854Z,99759.75
2022-11-19T11:17:44.784Z,99771.53
2022-11-19T11:23:01.701Z,99775.00
2022-11-19T11:28:06.684Z,99780.78
2022-11-19T11:33:24.889Z,99782.94
2022-11-19T11:38:29.233Z,99778.47
2022-11-19T11:43:35.019Z,99782.38
2022-11-19T11:48:45.899Z,99782.25
2022-11-19T11:54:22.756Z,99787.44
2022-11-19T11:59:31.162Z,99786.72
2022-11-19T12:04:35.606Z,99794.47
2022-11-19T12:09:45.879Z,99790.59
2022-11-19T12:15:19.648Z,99778.00
2022-11-19T12:21:06.246Z,99776.06
2022-11-19T12:26:27.478Z,99770.94
2022-11-19T12:31:58.615Z,99767.13
2022-11-19T12:37:26.702Z,99756.06
2022-11-19T12:43:03.080Z,99764.66
2022-11-19T12:48:30.163Z,99761.34
2022-11-19T12:53:44.909Z,99765.31
2022-11-19T12:59:03.149Z,99759.72
2022-11-19T13:04:23.767Z,99745.69
2022-11-19T13:09:48.849Z,99765.28
2022-11-19T13:15:02.267Z,99773.19
2022-11-19T13:20:27.635Z,99774.31
2022-11-19T13:25:40.630Z,99781.94
2022-11-19T13:30:47.201Z,99797.63
2022-11-19T13:36:32.500Z,99806.88
2022-11-19T13:42:09.282Z,99798.16
2022-11-19T13:47:54.150Z,99807.56
2022-11-19T13:53:20.071Z,99823.84
2022-11-19T13:58:38.347Z,99812.47
2022-11-19T14:04:20.140Z,99827.56
2022-11-19T14:09:44.150Z,99829.31
2022-11-19T14:15:28.327Z,99818.78
2022-11-19T14:21:09.232Z,99812.78
2022-11-19T14:26:32.147Z,99809.88
2022-11-19T14:32:00.750Z,99812.44
2022-11-19T14:37:39.713Z,99815.16
2022-11-19T14:43:30.659Z,99808.06
2022-11-19T14:48:40.175Z,99803.72
2022-11-19T14:54:15.186Z,99811.53
2022-11-19T14:59:24.350Z,99827.09
2022-11-19T15:04:49.457Z,99827.75
2022-11-19T15:10:10.767Z,99833.50
2022-11-19T15:15:19.870Z,99838.75
2022-11-19T15:21:07.241Z,99841.22
2022-11-19T15:26:47.142Z,99855.78
2022-11-19T15:32:42.607Z,99855.63
2022-11-19T15:38:20.456Z,99856.72
2022-11-19T15:43:46.017Z,99861.13
2022-11-19T15:49:26.967Z,99861.41
2022-11-19T15:54:32.923Z,99848.78
2022-11-19T15:59:38.288Z,99865.16
2022-11-19T16:04:41.291Z,99853.38
2022-11-19T16:09:44.329Z,99860.06
2022-11-19T16:15:12.640Z,99873.66
2022-11-19T16:20:22.332Z,99866.19
2022-11-19T16:25:38.100Z,99879.53
2022-11-19T16:30:49.855Z,99864.91
2022-11-19T16:36:09.905Z,99874.91
2022-11-19T16:41:32.581Z,99893.03
2022-11-19T16:46:36.032Z,99901.97
2022-11-19T16:51:53.534Z,99892.81
2022-11-19T16:56:56.663Z,99904.03
2022-11-19T17:02:00.376Z,99894.88
2022-11-19T17:07:03.525Z,99896.75
2022-11-19T17:12:27.770Z,99894.38
2022-11-19T17:17:42.058Z,99925.22
2022-11-19T17:22:45.028Z,99931.56
2022-11-19T17:27:57.641Z,99934.31
2022-11-19T17:33:04.620Z,99950.13
2022-11-19T17:38:28.205Z,99951.19
2022-11-19T17:43:55.901Z,99957.03
2022-11-19T17:48:58.865Z,99954.03
2022-11-19T17:54:02.232Z,99949.38
2022-11-19T17:59:05.298Z,99940.31
2022-11-19T18:04:12.276Z,99932.22
2022-11-19T18:09:15.175Z,99903.88
2022-11-19T18:14:18.144Z,99901.72
2022-11-19T18:19:28.573Z,99901.00
2022-11-19T18:24:31.509Z,99910.50
2022-11-19T18:29:34.459Z,99912.22
2022-11-19T18:34:38.449Z,99907.19
2022-11-19T18:39:41.436Z,99905.75
2022-11-19T18:44:44.402Z,99923.34
2022-11-19T18:49:47.293Z,99925.47
2022-11-19T18:54:50.232Z,99929.50
2022-11-19T18:59:53.177Z,99913.19
2022-11-19T19:04:56.546Z,99923.91
2022-11-19T19:09:59.442Z,99926.84
2022-11-19T19:15:02.492Z,99931.03
2022-11-19T19:20:05.941Z,99928.50
2022-11-19T19:25:09.527Z,99925.91
2022-11-19T19:30:12.886Z,99942.53
2022-11-19T19:35:15.964Z,99948.41
2022-11-19T19:40:18.904Z,99942.09
2022-11-19T19:45:21.750Z,99927.47
2022-11-19T19:50:24.807Z,99911.84
2022-11-19T19:55:27.773Z,99922.31
2022-11-19T20:00:30.685Z,99930.41
2022-11-19T20:05:33.860Z,99944.91
2022-11-19T20:10:36.793Z,99950.34
2022-11-19T20:15:41.261Z,99954.75
2022-11-19T20:20:44.052Z,99944.28
2022-11-19T20:25:46.940Z,99953.09
2022-11-19T20:30:49.928Z,99948.91
2022-11-19T20:35:53.003Z,99940.31
2022-11-19T20:41:02.002Z,99954.59
2022-11-19T20:46:12.085Z,99953.03
2022-11-19T20:51:19.979Z,99963.94
2022-11-19T20:56:22.832Z,99961.31
2022-11-19T21:01:29.851Z,99958.09
2022-11-19T21:06:34.673Z,99959.16
2022-11-19T21:11:37.971Z,99973.38
2022-11-19T21:16:41.057Z,99949.34
2022-11-19T21:21:45.535Z,99967.03
2022-11-19T21:26:48.693Z,99941.22
2022-11-19T21:31:51.702Z,99949.88
2022-11-19T21:36:55.491Z,99947.63
2022-11-19T21:42:00.857Z,99934.75
2022-11-19T21:47:03.887Z,99924.31
2022-11-19T21:52:07.203Z,99916.56
2022-11-19T21:57:10.000Z,99918.56
2022-11-19T22:02:13.863Z,99903.00
2022-11-19T22:07:16.803Z,99902.47
2022-11-19T22:12:19.715Z,99900.81
2022-11-19T22:17:22.729Z,99885.34
2022-11-19T22:22:25.427Z,99889.03
2022-11-19T22:27:31.491Z,99881.38
2022-11-19T22:32:34.419Z,99866.78
2022-11-19T22:37:37.362Z,99878.19
2022-11-19T22:42:40.352Z,99886.22
2022-11-19T22:47:43.173Z,99853.44
2022-11-19T22:52:46.111Z,99849.16
2022-11-19T22:57:49.079Z,99841.75
2022-11-19T23:02:51.880Z,99841.97
2022-11-19T23:07:55.250Z,99853.47
2022-11-19T23:13:16.285Z,99855.13
2022-11-19T23:18:19.177Z,99841.25
2022-11-19T23:23:22.429Z,99848.25
2022-11-19T23:28:27.407Z,99855.13
2022-11-19T23:33:30.380Z,99845.53
2022-11-19T23:38:36.338Z,99818.66
2022-11-19T23:43:40.395Z,99813.44
2022-11-19T23:48:46.248Z,99823.16
2022-11-19T23:53:49.858Z,99832.66
2022-11-19T23:58:52.996Z,99823.78
